Terminal Aerodrome Forecast
Issued by NWS Wichita, KS

Home | Current Version | Previous Version | Text Only | Print | Product List | Glossary Off
Versions: 1 2 3 4 5 6 7 8 9 10 11 12 13 14

812
FTUS43 KICT 242335
TAFICT
TAF
KICT 242335Z 2500/2524 33017G26KT P6SM BKN035
     FM250200 34013KT P6SM SCT035 OVC150
     FM250500 35013KT P6SM SCT150
     FM250900 33007KT P6SM SKC=

USA.gov is the U.S. government's official web portal to all federal, state and local government web resources and services.